North Palm Beach, FL (33408)

8:26 PM EDT on July 24, 2016 (GMT -0400)
Juno Isles | | Change Station

Elev 39 ft 26.86 °N, 80.06 °W | Updated 3 minutes ago

Mostly Cloudy
Mostly Cloudy
81.9 °F
Feels Like 85 °F
N
0.0
Wind Variable Wind from ESE

Today
High -- | Low -- °F
--% Chance of Precip.
Yesterday
High -- | Low -- °F
Precip. -- in
Pressure 30.05 in
Visibility 10.0 miles
Clouds Few 2000 ft
Scattered Clouds 3500 ft
Mostly Cloudy 16000 ft
Heat Index 85 °F
Dew Point 69 °F
Humidity 66%
Rainfall 0.00 in
Snow Depth Not available.
6:40 AM 8:12 PM
Waning Gibbous, 71% visible
METAR KPBI 242353Z 09008KT 10SM FEW020 SCT035 BKN160 28/21 A3005 RMK AO2 SLP176 60000 T02830206 10306 20278 53007
Pressure 30.05 in
Visibility 10.0 miles
Clouds Few 2000 ft
Scattered Clouds 3500 ft
Mostly Cloudy 16000 ft
Heat Index 85 °F
Dew Point 69 °F
Humidity 66%
Rainfall 0.00 in
Snow Depth Not available.
6:40 AM 8:12 PM
Waning Gibbous, 71% visible
METAR KPBI 242353Z 09008KT 10SM FEW020 SCT035 BKN160 28/21 A3005 RMK AO2 SLP176 60000 T02830206 10306 20278 53007

10-Day Weather Forecast

Almanac

Astronomy

Jul. 24, 2016 Rise Set
Actual Time
Civil Twilight
Nautical Twilight
Astronomical Twilight
Moon
Length of Visible Light
Length of Day
Tomorrow will be .
, % of the Moon is Illuminated

Today's Extremes

State Highs State Lows

Community

WunderPhotos

Upload Photos

1,927,212 photos uploaded!

WunderBlog® & News

Nearby

Air Quality

  Air Quality AQ Index Pollutant
Not available.

Snow Depth

Station Depth Elevation

Earthquake Activity

City Distance Mag. Time & Date
Minimum magnitude displayed is 2.5.

Coastal Water Temperatures

Place Temperature

Stations

Nearby Weather Stations

Station Location Temp. Windchill Dew Point Humidity Wind Precip. Elev Updated Type
                   

Watches & Warnings

There are currently no watches in effect.